createdAt,value
2023-04-25T00:01:42.745Z,67917.59
2023-04-25T00:04:10.862Z,67921.38
2023-04-25T00:06:38.446Z,67928.69
2023-04-25T00:09:08.627Z,67927.97
2023-04-25T00:11:35.808Z,67940.94
2023-04-25T00:14:03.404Z,67922.66
2023-04-25T00:16:34.422Z,67934.34
2023-04-25T00:19:04.114Z,67933.41
2023-04-25T00:21:32.662Z,67923.44
2023-04-25T00:24:01.239Z,67914.94
2023-04-25T00:26:28.686Z,67904.78
2023-04-25T00:28:55.791Z,67896.66
2023-04-25T00:31:22.956Z,67893.47
2023-04-25T00:33:50.666Z,67899.28
2023-04-25T00:36:18.227Z,67896.88
2023-04-25T00:38:45.318Z,67899.50
2023-04-25T00:41:12.810Z,67889.53
2023-04-25T00:43:41.092Z,67890.28
2023-04-25T00:46:08.270Z,67876.72
2023-04-25T00:48:35.587Z,67862.41
2023-04-25T00:51:02.766Z,67851.69
2023-04-25T00:53:31.290Z,67849.75
2023-04-25T00:55:59.530Z,67842.41
2023-04-25T00:58:26.658Z,67841.84
2023-04-25T01:00:53.965Z,67832.63
2023-04-25T01:03:21.929Z,67822.88
2023-04-25T01:05:49.434Z,67823.78
2023-04-25T01:08:16.627Z,67825.84
2023-04-25T01:10:43.903Z,67827.75
2023-04-25T01:13:11.332Z,67820.03
2023-04-25T01:15:38.537Z,67819.84
2023-04-25T01:18:07.492Z,67817.38
2023-04-25T01:20:35.688Z,67807.78
2023-04-25T01:23:04.088Z,67802.91
2023-04-25T01:25:32.454Z,67794.81
2023-04-25T01:27:59.938Z,67792.75
2023-04-25T01:30:28.462Z,67792.16
2023-04-25T01:32:57.921Z,67793.28
2023-04-25T01:35:25.927Z,67789.34
2023-04-25T01:37:54.825Z,67784.81
2023-04-25T01:40:23.587Z,67780.53
2023-04-25T01:42:52.363Z,67785.19
2023-04-25T01:45:20.683Z,67776.56
2023-04-25T01:47:50.136Z,67772.78
2023-04-25T01:50:19.634Z,67769.59
2023-04-25T01:52:46.849Z,67763.56
2023-04-25T01:55:14.709Z,67760.00
2023-04-25T01:57:51.598Z,67750.97
2023-04-25T02:00:22.693Z,67752.44
2023-04-25T02:02:51.691Z,67744.56
2023-04-25T02:05:27.348Z,67752.06
2023-04-25T02:07:54.669Z,67760.00
2023-04-25T02:10:21.881Z,67763.75
2023-04-25T02:13:07.542Z,67747.00
2023-04-25T02:15:44.114Z,67741.38
2023-04-25T02:18:17.473Z,67688.53
2023-04-25T02:20:45.443Z,67727.25
2023-04-25T02:23:12.640Z,67730.44
2023-04-25T02:25:39.770Z,67730.06
2023-04-25T02:28:07.004Z,67735.72
2023-04-25T02:30:34.156Z,67732.31
2023-04-25T02:33:01.339Z,67733.66
2023-04-25T02:35:30.277Z,67727.25
2023-04-25T02:37:57.638Z,67730.84
2023-04-25T02:40:24.821Z,67726.69
2023-04-25T02:42:52.530Z,67722.38
2023-04-25T02:45:19.675Z,67723.88
2023-04-25T02:47:47.019Z,67712.38
2023-04-25T02:50:14.149Z,67699.03
2023-04-25T02:52:41.741Z,67699.03
2023-04-25T02:55:14.976Z,67695.09
2023-04-25T02:57:43.193Z,67689.09
2023-04-25T03:00:15.370Z,67684.03
2023-04-25T03:02:42.668Z,67682.50
2023-04-25T03:05:09.943Z,67692.84
2023-04-25T03:07:37.963Z,67689.44
2023-04-25T03:10:06.796Z,67690.94
2023-04-25T03:12:35.288Z,67685.88
2023-04-25T03:15:02.572Z,67634.97
2023-04-25T03:17:29.829Z,67680.41
2023-04-25T03:19:56.999Z,67684.19
2023-04-25T03:22:24.826Z,67677.59
2023-04-25T03:24:52.368Z,67674.03
2023-04-25T03:27:21.178Z,67664.25
2023-04-25T03:29:48.436Z,67661.09
2023-04-25T03:32:15.735Z,67674.78
2023-04-25T03:34:43.071Z,67678.16
2023-04-25T03:37:10.633Z,67684.94
2023-04-25T03:39:39.538Z,67679.84
2023-04-25T03:42:07.693Z,67667.47
2023-04-25T03:44:34.928Z,67656.38
2023-04-25T03:47:02.993Z,67651.66
2023-04-25T03:49:30.942Z,67656.72
2023-04-25T03:52:03.901Z,67657.88
2023-04-25T03:54:36.499Z,67606.78
2023-04-25T03:57:10.053Z,67649.41
2023-04-25T03:59:39.664Z,67655.97
2023-04-25T04:02:09.180Z,67662.75
2023-04-25T04:04:37.709Z,67662.94
2023-04-25T04:07:04.997Z,67683.25
2023-04-25T04:09:36.020Z,67673.44
2023-04-25T04:12:08.304Z,67674.03
2023-04-25T04:14:36.835Z,67679.84
2023-04-25T04:17:05.009Z,67678.16
2023-04-25T04:19:32.126Z,67673.84
2023-04-25T04:22:15.828Z,67669.72
2023-04-25T04:24:47.407Z,67665.75
2023-04-25T04:27:20.531Z,67661.25
2023-04-25T04:29:54.354Z,67660.13
2023-04-25T04:32:33.703Z,67667.47
2023-04-25T04:35:01.015Z,67624.81
2023-04-25T04:37:28.392Z,67669.13
2023-04-25T04:39:55.476Z,67662.38
2023-04-25T04:42:31.107Z,67659.00
2023-04-25T04:45:19.161Z,67662.94
2023-04-25T04:48:02.343Z,67623.13
2023-04-25T04:50:36.680Z,67670.28
2023-04-25T04:53:22.644Z,67688.50
2023-04-25T04:56:14.583Z,67693.75
2023-04-25T04:59:00.902Z,67691.69
2023-04-25T05:01:31.328Z,67696.22
2023-04-25T05:04:09.111Z,67709.78
2023-04-25T05:07:04.757Z,67729.31
2023-04-25T05:09:50.077Z,67734.94
2023-04-25T05:12:37.134Z,67737.97
2023-04-25T05:15:36.751Z,67743.97
2023-04-25T05:18:22.451Z,67754.13
2023-04-25T05:21:04.325Z,67764.88
2023-04-25T05:23:46.487Z,67809.66
2023-04-25T05:26:39.721Z,67827.75
2023-04-25T05:29:40.211Z,67816.63
2023-04-25T05:32:18.795Z,67834.88
2023-04-25T05:34:48.083Z,67878.03
2023-04-25T05:37:24.357Z,67993.75
2023-04-25T05:39:58.015Z,68119.34
2023-04-25T05:42:51.390Z,68124.03
2023-04-25T05:45:27.194Z,68194.59
2023-04-25T05:48:10.406Z,68148.38
2023-04-25T05:50:56.326Z,68141.41
2023-04-25T05:53:46.413Z,68149.16
2023-04-25T05:56:15.458Z,68196.50
2023-04-25T05:58:42.533Z,68129.50
2023-04-25T06:01:17.168Z,68107.78
2023-04-25T06:03:45.941Z,68099.09
2023-04-25T06:06:13.257Z,68103.66
2023-04-25T06:08:41.279Z,68114.59
2023-04-25T06:11:08.383Z,68065.16
2023-04-25T06:13:35.679Z,68042.75
2023-04-25T06:16:03.014Z,68000.31
2023-04-25T06:18:30.472Z,67979.19
2023-04-25T06:20:57.737Z,67978.06
2023-04-25T06:23:25.777Z,67981.09
2023-04-25T06:26:00.611Z,67980.53
2023-04-25T06:28:28.904Z,68012.19
2023-04-25T06:30:56.211Z,68052.91
2023-04-25T06:33:25.254Z,68077.06
2023-04-25T06:35:54.378Z,68050.66
2023-04-25T06:38:25.317Z,68090.25
2023-04-25T06:40:53.710Z,68063.47
2023-04-25T06:43:20.794Z,68045.38
2023-04-25T06:45:53.413Z,68078.19
2023-04-25T06:48:22.583Z,68099.69
2023-04-25T06:50:50.651Z,68098.53
2023-04-25T06:53:19.602Z,68159.13
2023-04-25T06:55:50.532Z,68095.72
2023-04-25T06:58:20.052Z,68088.75
2023-04-25T07:01:03.063Z,68122.88
2023-04-25T07:03:30.385Z,68090.81
2023-04-25T07:06:01.649Z,68107.41
2023-04-25T07:08:30.628Z,68160.25
2023-04-25T07:10:59.011Z,68173.09
2023-04-25T07:13:26.156Z,68209.91
2023-04-25T07:15:54.072Z,68292.22
2023-04-25T07:18:22.644Z,68359.31
2023-04-25T07:20:50.988Z,68396.00
2023-04-25T07:23:19.576Z,68398.81
2023-04-25T07:25:47.508Z,68413.56
2023-04-25T07:28:19.682Z,68323.22
2023-04-25T07:30:48.447Z,68210.28
2023-04-25T07:33:15.710Z,68205.56
2023-04-25T07:35:43.381Z,68204.44
2023-04-25T07:38:11.552Z,68225.00
2023-04-25T07:40:39.273Z,68228.03
2023-04-25T07:43:08.968Z,68229.34
2023-04-25T07:45:47.103Z,68160.81
2023-04-25T07:48:19.867Z,68177.81
2023-04-25T07:50:48.027Z,68185.75
2023-04-25T07:53:15.683Z,68254.66
2023-04-25T07:55:49.172Z,68297.53
2023-04-25T07:58:22.251Z,68317.56
2023-04-25T08:00:52.418Z,68261.63
2023-04-25T08:03:32.056Z,68152.91
2023-04-25T08:06:00.543Z,68098.38
2023-04-25T08:08:31.352Z,68078.38
2023-04-25T08:10:59.169Z,68066.28
2023-04-25T08:13:27.702Z,68024.84
2023-04-25T08:15:55.774Z,68048.19
2023-04-25T08:18:22.954Z,68092.13
2023-04-25T08:20:52.525Z,68209.91
2023-04-25T08:23:19.757Z,68178.19
2023-04-25T08:26:13.402Z,68115.91
2023-04-25T08:28:42.641Z,68083.25
2023-04-25T08:31:11.466Z,68079.88
2023-04-25T08:33:50.595Z,68104.59
2023-04-25T08:36:37.657Z,68095.72
2023-04-25T08:39:15.872Z,68099.47
2023-04-25T08:41:57.499Z,68111.19
2023-04-25T08:44:24.627Z,68112.13
2023-04-25T08:46:53.345Z,68124.97
2023-04-25T08:49:29.207Z,68120.44
2023-04-25T08:52:00.615Z,68095.34
2023-04-25T08:54:34.421Z,68086.28
2023-04-25T08:57:05.292Z,68122.88
2023-04-25T08:59:36.122Z,68134.59
2023-04-25T09:02:04.530Z,68130.47
2023-04-25T09:04:32.804Z,68092.88
2023-04-25T09:06:59.986Z,68068.19
2023-04-25T09:09:27.970Z,68133.66
2023-04-25T09:11:56.499Z,68167.44
2023-04-25T09:14:27.001Z,68182.16
2023-04-25T09:17:04.492Z,68216.88
2023-04-25T09:19:53.543Z,68171.22
2023-04-25T09:22:26.187Z,68092.50
2023-04-25T09:24:53.640Z,68030.66
2023-04-25T09:27:24.249Z,67995.03
2023-04-25T09:30:03.910Z,67980.88
2023-04-25T09:32:51.328Z,67995.03
2023-04-25T09:35:27.196Z,68021.03
2023-04-25T09:37:56.749Z,68053.66
2023-04-25T09:40:54.985Z,68065.72
2023-04-25T09:43:37.407Z,68080.44
2023-04-25T09:46:10.854Z,68092.31
2023-04-25T09:48:41.425Z,68092.31
2023-04-25T09:51:16.179Z,68095.72
2023-04-25T09:53:47.868Z,68101.00
2023-04-25T09:56:24.557Z,68106.66
2023-04-25T09:58:55.159Z,68112.50
2023-04-25T10:01:23.812Z,68084.97
2023-04-25T10:04:07.892Z,68061.41
2023-04-25T10:06:50.642Z,68075.91
2023-04-25T10:09:21.774Z,68084.41
2023-04-25T10:11:55.152Z,68101.94
2023-04-25T10:14:23.542Z,68085.19
2023-04-25T10:16:55.067Z,68067.81
2023-04-25T10:19:23.361Z,68088.94
2023-04-25T10:22:06.935Z,68076.69
2023-04-25T10:24:36.278Z,68107.97
2023-04-25T10:27:04.080Z,68118.00
2023-04-25T10:29:31.844Z,68124.03
2023-04-25T10:31:59.158Z,68111.38
2023-04-25T10:34:42.796Z,68111.00
2023-04-25T10:37:11.806Z,68077.59
2023-04-25T10:39:41.554Z,68066.88
2023-04-25T10:42:09.174Z,68065.53
2023-04-25T10:44:38.301Z,68038.03
2023-04-25T10:47:08.085Z,67998.63
2023-04-25T10:49:43.190Z,67976.94
2023-04-25T10:52:25.751Z,67967.13
2023-04-25T10:54:58.353Z,67957.16
2023-04-25T10:57:44.391Z,67954.91
2023-04-25T11:00:16.918Z,67951.13
2023-04-25T11:02:54.344Z,67954.53
2023-04-25T11:05:36.464Z,67919.28
2023-04-25T11:08:12.653Z,67902.53
2023-04-25T11:10:41.242Z,67905.72
2023-04-25T11:13:08.412Z,67934.34
2023-04-25T11:15:35.696Z,67945.84
2023-04-25T11:18:05.766Z,67950.38
2023-04-25T11:20:32.899Z,67957.72
2023-04-25T11:23:01.159Z,67973.19
2023-04-25T11:25:29.889Z,67961.13
2023-04-25T11:27:59.281Z,67943.22
2023-04-25T11:30:27.673Z,67959.78
2023-04-25T11:32:55.052Z,67975.44
2023-04-25T11:35:24.232Z,68024.06
2023-04-25T11:37:55.738Z,68068.19
2023-04-25T11:40:22.979Z,68070.06
2023-04-25T11:42:50.489Z,68050.06
2023-04-25T11:45:19.871Z,68070.84
2023-04-25T11:47:47.642Z,68099.09
2023-04-25T11:50:15.290Z,68093.25
2023-04-25T11:52:47.563Z,68100.81
2023-04-25T11:55:20.989Z,68154.59
2023-04-25T11:57:51.175Z,68168.19
2023-04-25T12:00:21.362Z,68153.28
2023-04-25T12:03:09.905Z,68062.91
2023-04-25T12:05:39.084Z,67989.94
2023-04-25T12:08:13.234Z,67995.97
2023-04-25T12:10:42.153Z,68009.94
2023-04-25T12:13:25.984Z,68021.97
2023-04-25T12:15:56.585Z,68036.88
2023-04-25T12:18:28.859Z,68047.63
2023-04-25T12:20:56.460Z,68039.31
2023-04-25T12:23:29.172Z,68047.63
2023-04-25T12:25:57.216Z,68059.50
2023-04-25T12:28:25.538Z,68078.91
2023-04-25T12:31:04.211Z,68084.97
2023-04-25T12:33:36.011Z,68112.34
2023-04-25T12:36:09.302Z,68142.16
2023-04-25T12:38:41.178Z,68147.44
2023-04-25T12:41:09.697Z,68155.16
2023-04-25T12:43:36.835Z,68119.50
2023-04-25T12:46:04.186Z,68070.63
2023-04-25T12:48:31.306Z,68052.16
2023-04-25T12:50:59.542Z,68073.84
2023-04-25T12:53:26.860Z,68100.03
2023-04-25T12:58:26.908Z,68037.09
2023-04-25T13:00:54.554Z,68013.50
2023-04-25T13:03:22.990Z,67993.34
2023-04-25T13:05:51.368Z,67979.19
2023-04-25T13:08:18.591Z,67950.94
2023-04-25T13:10:45.836Z,67940.56
2023-04-25T13:13:12.971Z,67940.19
2023-04-25T13:15:40.184Z,67950.94
2023-04-25T13:18:07.845Z,67951.88
2023-04-25T13:20:35.321Z,67931.13
2023-04-25T13:23:03.037Z,67911.94
2023-04-25T13:25:30.378Z,67905.16
2023-04-25T13:27:57.391Z,67898.56
2023-04-25T13:30:24.675Z,67899.50
2023-04-25T13:32:52.192Z,67901.56
2023-04-25T13:35:19.356Z,67904.03
2023-04-25T13:37:46.456Z,67898.19
2023-04-25T13:40:13.817Z,67899.91
2023-04-25T13:42:41.633Z,67927.00
2023-04-25T13:45:09.179Z,67945.28
2023-04-25T13:47:36.587Z,67947.53
2023-04-25T13:50:06.704Z,67944.16
2023-04-25T13:52:34.325Z,67946.41
2023-04-25T13:55:02.088Z,67965.06
2023-04-25T13:57:29.179Z,67984.84
2023-04-25T13:59:56.299Z,67996.16
2023-04-25T14:02:23.464Z,67995.59
2023-04-25T14:04:50.662Z,68006.53
2023-04-25T14:07:18.044Z,68038.97
2023-04-25T14:09:45.510Z,68063.66
2023-04-25T14:12:12.716Z,68075.91
2023-04-25T14:14:41.135Z,68087.44
2023-04-25T14:17:09.975Z,68086.66
2023-04-25T14:19:38.688Z,68079.13
2023-04-25T14:22:05.978Z,68139.88
2023-04-25T14:24:33.145Z,68129.69
2023-04-25T14:27:03.178Z,68193.09
2023-04-25T14:29:30.576Z,68168.75
2023-04-25T14:31:58.873Z,68185.56
2023-04-25T14:34:26.831Z,68247.28
2023-04-25T14:37:02.379Z,68218.59
2023-04-25T14:39:31.859Z,68148.78
2023-04-25T14:41:59.063Z,68071.38
2023-04-25T14:44:28.192Z,68021.22
2023-04-25T14:46:55.563Z,67989.00
2023-04-25T14:49:33.581Z,68088.38
2023-04-25T14:52:01.295Z,68109.31
2023-04-25T14:54:28.440Z,68087.81
2023-04-25T14:56:55.776Z,68051.97
2023-04-25T14:59:25.612Z,68032.00
2023-04-25T15:01:59.451Z,68025.00
2023-04-25T15:04:27.267Z,68022.19
2023-04-25T15:06:54.671Z,68012.75
2023-04-25T15:09:33.025Z,68003.69
2023-04-25T15:12:03.427Z,67995.59
2023-04-25T15:14:30.626Z,67986.56
2023-04-25T15:16:57.912Z,67984.66
2023-04-25T15:19:28.385Z,67972.97
2023-04-25T15:21:58.619Z,67976.16
2023-04-25T15:27:07.012Z,67967.13
2023-04-25T15:29:34.183Z,67954.91
2023-04-25T15:32:01.579Z,67952.06
2023-04-25T15:34:29.929Z,67945.66
2023-04-25T15:36:58.816Z,67953.75
2023-04-25T15:39:32.044Z,67961.13
2023-04-25T15:42:00.459Z,67955.47
2023-04-25T15:44:27.751Z,67946.97
2023-04-25T15:46:56.636Z,67941.88
2023-04-25T15:49:23.972Z,67951.50
2023-04-25T15:51:51.448Z,67958.84
2023-04-25T15:54:21.469Z,67965.84
2023-04-25T15:56:48.633Z,67973.75
2023-04-25T15:59:15.812Z,67979.78
2023-04-25T16:01:43.051Z,67984.66
2023-04-25T16:04:13.447Z,67995.41
2023-04-25T16:06:42.522Z,68009.16
2023-04-25T16:09:10.627Z,68012.38
2023-04-25T16:11:46.844Z,67965.53
2023-04-25T16:14:13.955Z,68015.75
2023-04-25T16:16:47.284Z,68020.28
2023-04-25T16:21:59.742Z,68035.00
2023-04-25T16:24:29.861Z,68086.09
2023-04-25T16:26:57.655Z,68091.00
2023-04-25T16:29:24.815Z,68088.94
2023-04-25T16:31:52.161Z,68094.78
2023-04-25T16:34:23.525Z,68067.59
2023-04-25T16:36:56.634Z,67990.72
2023-04-25T16:39:23.880Z,67953.38
2023-04-25T16:41:52.045Z,67943.38
2023-04-25T16:44:25.556Z,67931.72
2023-04-25T16:46:52.767Z,67918.16
2023-04-25T16:49:19.931Z,67922.13
2023-04-25T16:51:47.052Z,67922.50
2023-04-25T16:54:14.257Z,67918.34
2023-04-25T16:56:41.778Z,67922.66
2023-04-25T16:59:08.970Z,67930.97
2023-04-25T17:01:36.839Z,67923.44
2023-04-25T17:04:04.068Z,67934.34
2023-04-25T17:06:33.300Z,67887.22
2023-04-25T17:09:23.917Z,67888.16
2023-04-25T17:11:51.659Z,67950.72
2023-04-25T17:14:24.361Z,67965.06
2023-04-25T17:16:56.225Z,67980.34
2023-04-25T17:19:25.048Z,67986.94
2023-04-25T17:21:59.564Z,67978.63
2023-04-25T17:24:26.930Z,67955.25
2023-04-25T17:26:56.558Z,67934.16
2023-04-25T17:29:27.735Z,67908.34
2023-04-25T17:31:57.033Z,67888.56
2023-04-25T17:34:24.201Z,67874.09
2023-04-25T17:36:51.384Z,67867.09
2023-04-25T17:39:18.664Z,67850.31
2023-04-25T17:41:49.280Z,67855.25
2023-04-25T17:44:16.441Z,67846.38
2023-04-25T17:46:43.801Z,67847.31
2023-04-25T17:49:12.052Z,67847.50
2023-04-25T17:51:39.440Z,67848.66
2023-04-25T17:54:06.932Z,67847.50
2023-04-25T17:56:37.809Z,67848.28
2023-04-25T17:59:07.784Z,67797.44
2023-04-25T18:01:35.022Z,67841.09
2023-04-25T18:04:04.469Z,67831.50
2023-04-25T18:06:35.689Z,67830.56
2023-04-25T18:09:08.580Z,67828.88
2023-04-25T18:11:38.746Z,67823.22
2023-04-25T18:14:06.569Z,67827.16
2023-04-25T18:16:36.035Z,67825.84
2023-04-25T18:19:15.455Z,67820.97
2023-04-25T18:21:43.352Z,67824.91
2023-04-25T18:24:12.465Z,67823.78
2023-04-25T18:26:40.438Z,67822.88
2023-04-25T18:29:07.791Z,67813.81
2023-04-25T18:31:36.073Z,67810.44
2023-04-25T18:34:03.376Z,67807.97
2023-04-25T18:36:30.507Z,67799.88
2023-04-25T18:39:01.144Z,67789.72
2023-04-25T18:41:51.952Z,67780.13
2023-04-25T18:44:17.979Z,67763.56
2023-04-25T18:46:47.090Z,67689.09
2023-04-25T18:49:18.643Z,67727.81
2023-04-25T18:51:46.384Z,67727.06
2023-04-25T18:54:13.917Z,67719.91
2023-04-25T18:56:41.222Z,67716.53
2023-04-25T18:59:13.585Z,67713.13
2023-04-25T19:01:41.887Z,67703.19
2023-04-25T19:04:09.754Z,67707.34
2023-04-25T19:06:40.055Z,67704.47
2023-04-25T19:09:08.145Z,67695.66
2023-04-25T19:11:35.414Z,67679.84
2023-04-25T19:14:02.967Z,67682.13
2023-04-25T19:16:34.322Z,67680.63
2023-04-25T19:19:03.924Z,67679.84
2023-04-25T19:21:32.812Z,67673.44
2023-04-25T19:24:09.366Z,67672.34
2023-04-25T19:26:48.309Z,67657.09
2023-04-25T19:29:24.538Z,67653.34
2023-04-25T19:32:03.991Z,67651.47
2023-04-25T19:34:31.912Z,67596.63
2023-04-25T19:36:59.182Z,67641.88
2023-04-25T19:39:27.799Z,67635.88
2023-04-25T19:41:59.353Z,67630.81
2023-04-25T19:44:27.920Z,67630.22
2023-04-25T19:46:58.893Z,67621.78
2023-04-25T19:49:29.557Z,67617.81
2023-04-25T19:51:56.894Z,67614.25
2023-04-25T19:54:25.945Z,67631.16
2023-04-25T19:56:53.299Z,67625.72
2023-04-25T19:59:24.377Z,67625.50
2023-04-25T20:01:57.224Z,67618.19
2023-04-25T20:04:27.615Z,67610.84
2023-04-25T20:06:56.949Z,67615.00
2023-04-25T20:09:27.145Z,67609.72
2023-04-25T20:11:54.310Z,67614.59
2023-04-25T20:14:24.513Z,67631.34
2023-04-25T20:16:51.683Z,67623.25
2023-04-25T20:19:19.239Z,67569.03
2023-04-25T20:21:47.256Z,67597.53
2023-04-25T20:24:17.522Z,67610.28
2023-04-25T20:26:48.305Z,67603.16
2023-04-25T20:29:19.440Z,67607.66
2023-04-25T20:31:46.787Z,67601.69
2023-04-25T20:34:14.541Z,67607.09
2023-04-25T20:36:41.580Z,67619.31
2023-04-25T20:39:08.824Z,67619.53
2023-04-25T20:41:37.812Z,67625.50
2023-04-25T20:44:04.970Z,67620.63
2023-04-25T20:46:32.280Z,67626.63
2023-04-25T20:49:01.513Z,67630.81
2023-04-25T20:51:30.302Z,67638.69
2023-04-25T20:53:57.710Z,67625.72
2023-04-25T20:56:25.302Z,67630.03
2023-04-25T20:58:53.245Z,67626.84
2023-04-25T21:01:20.790Z,67616.31
2023-04-25T21:03:48.842Z,67579.72
2023-04-25T21:06:16.848Z,67628.13
2023-04-25T21:08:44.047Z,67611.63
2023-04-25T21:11:12.736Z,67603.72
2023-04-25T21:13:39.830Z,67553.81
2023-04-25T21:16:07.168Z,67545.38
2023-04-25T21:18:34.911Z,67600.72
2023-04-25T21:21:05.329Z,67606.91
2023-04-25T21:23:33.865Z,67556.06
2023-04-25T21:26:01.073Z,67600.91
2023-04-25T21:28:28.271Z,67594.72
2023-04-25T21:30:55.497Z,67591.88
2023-04-25T21:33:22.719Z,67597.88
2023-04-25T21:35:49.955Z,67593.38
2023-04-25T21:38:20.000Z,67593.38
2023-04-25T21:40:47.468Z,67595.81
2023-04-25T21:43:14.844Z,67554.75
2023-04-25T21:46:02.101Z,67603.94
2023-04-25T21:48:29.201Z,67615.56
2023-04-25T21:50:56.559Z,67625.50
2023-04-25T21:53:24.911Z,67630.59
2023-04-25T21:55:56.246Z,67637.56
2023-04-25T21:58:23.787Z,67637.56
2023-04-25T22:00:50.992Z,67636.41
2023-04-25T22:03:20.284Z,67634.75
2023-04-25T22:05:48.378Z,67589.88
2023-04-25T22:08:15.756Z,67648.06
2023-04-25T22:10:43.032Z,67640.38
2023-04-25T22:13:10.135Z,67644.88
2023-04-25T22:15:38.232Z,67649.22
2023-04-25T22:18:05.850Z,67603.97
2023-04-25T22:20:33.357Z,67654.47
2023-04-25T22:23:00.986Z,67608.84
2023-04-25T22:25:28.671Z,67654.47
2023-04-25T22:27:55.917Z,67655.03
2023-04-25T22:30:23.464Z,67648.84
2023-04-25T22:32:50.588Z,67654.47
2023-04-25T22:35:17.903Z,67653.16
2023-04-25T22:37:45.242Z,67652.22
2023-04-25T22:40:13.331Z,67654.84
2023-04-25T22:42:42.152Z,67642.63
2023-04-25T22:45:10.439Z,67635.88
2023-04-25T22:47:38.804Z,67632.84
2023-04-25T22:50:08.622Z,67619.53
2023-04-25T22:52:35.839Z,67611.63
2023-04-25T22:55:03.323Z,67600.72
2023-04-25T22:57:30.694Z,67588.72
2023-04-25T22:59:57.873Z,67585.91
2023-04-25T23:02:25.976Z,67583.44
2023-04-25T23:04:53.360Z,67589.44
2023-04-25T23:07:20.950Z,67596.75
2023-04-25T23:09:48.197Z,67592.47
2023-04-25T23:12:19.212Z,67589.84
2023-04-25T23:14:50.582Z,67587.16
2023-04-25T23:17:17.619Z,67538.03
2023-04-25T23:19:45.419Z,67590.00
2023-04-25T23:22:13.087Z,67594.50
2023-04-25T23:24:40.493Z,67593.38
2023-04-25T23:27:07.704Z,67594.13
2023-04-25T23:29:34.852Z,67596.41
2023-04-25T23:32:02.403Z,67595.28
2023-04-25T23:34:33.243Z,67599.22
2023-04-25T23:37:04.479Z,67598.44
2023-04-25T23:39:31.719Z,67551.00
2023-04-25T23:41:58.891Z,67595.06
2023-04-25T23:44:26.379Z,67586.81
2023-04-25T23:46:53.450Z,67585.69
2023-04-25T23:49:21.098Z,67588.31
2023-04-25T23:51:48.195Z,67584.00
2023-04-25T23:54:16.056Z,67586.81
2023-04-25T23:56:43.297Z,67586.25
2023-04-25T23:59:10.548Z,67585.69
